createdAt,value
2019-05-05T00:00:35.187Z,3.38
2019-05-05T00:01:31.100Z,3.38
2019-05-05T00:02:34.325Z,3.38
2019-05-05T00:03:34.184Z,3.40
2019-05-05T00:04:31.962Z,3.45
2019-05-05T00:05:31.895Z,3.45
2019-05-05T00:06:34.139Z,3.46
2019-05-05T00:07:34.797Z,3.48
2019-05-05T00:08:35.045Z,3.55
2019-05-05T00:09:34.709Z,3.55
2019-05-05T00:10:34.772Z,3.55
2019-05-05T00:11:35.130Z,3.54
2019-05-05T00:12:34.371Z,3.53
2019-05-05T00:13:34.787Z,3.53
2019-05-05T00:14:35.158Z,3.54
2019-05-05T00:15:35.663Z,3.54
2019-05-05T00:16:35.622Z,3.53
2019-05-05T00:17:38.773Z,3.53
2019-05-05T00:18:35.771Z,3.53
2019-05-05T00:19:36.018Z,3.53
2019-05-05T00:20:36.217Z,3.52
2019-05-05T00:21:36.528Z,3.51
2019-05-05T00:22:36.833Z,3.49
2019-05-05T00:23:37.087Z,3.48
2019-05-05T00:24:37.362Z,3.41
2019-05-05T00:25:37.668Z,3.38
2019-05-05T00:26:37.921Z,3.38
2019-05-05T00:27:41.031Z,3.40
2019-05-05T00:28:38.438Z,3.42
2019-05-05T00:29:39.020Z,3.44
2019-05-05T00:30:39.084Z,3.45
2019-05-05T00:31:38.831Z,3.45
2019-05-05T00:32:39.102Z,3.45
2019-05-05T00:33:39.540Z,3.44
2019-05-05T00:34:40.066Z,3.43
2019-05-05T00:35:39.812Z,3.42
2019-05-05T00:36:40.065Z,3.43
2019-05-05T00:37:40.368Z,3.44
2019-05-05T00:38:40.637Z,3.45
2019-05-05T00:39:40.935Z,3.45
2019-05-05T00:41:41.218Z,3.46
2019-05-05T00:42:41.638Z,3.47
2019-05-05T00:43:41.994Z,3.48
2019-05-05T00:44:44.504Z,3.50
2019-05-05T00:45:42.276Z,3.52
2019-05-05T00:46:44.596Z,3.53
2019-05-05T00:47:44.939Z,3.55
2019-05-05T00:48:44.461Z,3.56
2019-05-05T00:49:48.572Z,3.63
2019-05-05T00:50:44.984Z,3.64
2019-05-05T00:51:44.406Z,3.65
2019-05-05T00:52:44.598Z,3.68
2019-05-05T00:53:45.067Z,3.68
2019-05-05T00:54:45.139Z,3.66
2019-05-05T00:55:45.434Z,3.64
2019-05-05T00:56:45.697Z,3.64
2019-05-05T00:57:45.941Z,3.64
2019-05-05T00:58:45.984Z,3.62
2019-05-05T00:59:46.397Z,3.62
2019-05-05T01:00:46.304Z,3.62
2019-05-05T01:01:46.605Z,3.62
2019-05-05T01:02:46.634Z,3.62
2019-05-05T01:03:47.041Z,3.60
2019-05-05T01:04:47.421Z,3.59
2019-05-05T01:05:47.682Z,3.57
2019-05-05T01:06:47.934Z,3.55
2019-05-05T01:07:48.519Z,3.53
2019-05-05T01:08:48.276Z,3.52
2019-05-05T01:09:48.708Z,3.45
2019-05-05T01:10:49.300Z,3.42
2019-05-05T01:11:49.244Z,3.41
2019-05-05T01:12:49.629Z,3.35
2019-05-05T01:13:49.953Z,3.35
2019-05-05T01:14:50.210Z,3.35
2019-05-05T01:15:50.440Z,3.35
2019-05-05T01:16:50.623Z,3.34
2019-05-05T01:17:50.487Z,3.35
2019-05-05T01:18:50.530Z,3.35
2019-05-05T01:20:01.229Z,3.35
2019-05-05T01:20:51.615Z,3.35
2019-05-05T01:21:51.633Z,3.34
2019-05-05T01:22:51.668Z,3.33
2019-05-05T01:23:51.696Z,3.34
2019-05-05T01:24:51.537Z,3.34
2019-05-05T01:25:51.810Z,3.35
2019-05-05T01:26:52.278Z,3.36
2019-05-05T01:28:52.620Z,3.35
2019-05-05T01:29:54.584Z,3.33
2019-05-05T01:30:54.908Z,3.27
2019-05-05T01:31:54.384Z,3.27
2019-05-05T01:32:55.978Z,3.27
2019-05-05T01:33:54.364Z,3.27
2019-05-05T01:34:55.013Z,3.30
2019-05-05T01:35:55.284Z,3.30
2019-05-05T01:36:55.161Z,3.28
2019-05-05T01:37:55.771Z,3.27
2019-05-05T01:38:55.964Z,3.26
2019-05-05T01:39:56.022Z,3.25
2019-05-05T01:40:56.179Z,3.24
2019-05-05T01:41:56.803Z,3.23
2019-05-05T01:42:56.891Z,3.23
2019-05-05T01:43:57.097Z,3.22
2019-05-05T01:44:57.538Z,3.22
2019-05-05T01:45:58.045Z,3.21
2019-05-05T01:46:57.799Z,3.20
2019-05-05T01:47:58.081Z,3.20
2019-05-05T01:48:58.365Z,3.21
2019-05-05T01:49:58.814Z,3.20
2019-05-05T01:50:59.266Z,3.19
2019-05-05T01:51:59.642Z,3.15
2019-05-05T01:53:00.168Z,3.14
2019-05-05T01:54:00.200Z,3.13
2019-05-05T01:55:00.060Z,3.10
2019-05-05T01:56:00.334Z,3.08
2019-05-05T01:57:00.772Z,3.06
2019-05-05T01:58:01.010Z,3.04
2019-05-05T01:59:01.292Z,3.03
2019-05-05T02:00:01.394Z,3.02
2019-05-05T02:01:01.691Z,3.01
2019-05-05T02:02:01.737Z,3.02
2019-05-05T02:03:01.843Z,3.04
2019-05-05T02:04:01.841Z,3.06
2019-05-05T02:05:02.010Z,3.07
2019-05-05T02:06:01.805Z,3.07
2019-05-05T02:07:02.401Z,3.05
2019-05-05T02:08:04.711Z,3.04
2019-05-05T02:09:02.676Z,3.02
2019-05-05T02:10:05.920Z,2.93
2019-05-05T02:11:05.237Z,2.92
2019-05-05T02:12:05.156Z,2.89
2019-05-05T02:13:04.673Z,2.87
2019-05-05T02:14:05.090Z,2.85
2019-05-05T02:15:04.250Z,2.83
2019-05-05T02:16:04.562Z,2.81
2019-05-05T02:17:05.044Z,2.79
2019-05-05T02:18:04.503Z,2.76
2019-05-05T02:19:05.011Z,2.73
2019-05-05T02:20:05.270Z,2.71
2019-05-05T02:21:05.117Z,2.68
2019-05-05T02:22:05.408Z,2.66
2019-05-05T02:23:04.850Z,2.64
2019-05-05T02:24:05.335Z,2.62
2019-05-05T02:25:04.789Z,2.62
2019-05-05T02:26:05.088Z,2.60
2019-05-05T02:27:05.243Z,2.59
2019-05-05T02:28:05.109Z,2.56
2019-05-05T02:29:05.490Z,2.54
2019-05-05T02:30:06.422Z,2.53
2019-05-05T02:31:06.021Z,2.51
2019-05-05T02:32:06.562Z,2.50
2019-05-05T02:33:06.713Z,2.50
2019-05-05T02:34:06.957Z,2.51
2019-05-05T02:35:07.519Z,2.52
2019-05-05T02:36:07.817Z,2.54
2019-05-05T02:37:08.192Z,2.55
2019-05-05T02:38:08.815Z,2.54
2019-05-05T02:39:08.703Z,2.53
2019-05-05T02:40:09.131Z,2.52
2019-05-05T02:41:09.526Z,2.43
2019-05-05T02:42:09.775Z,2.36
2019-05-05T02:43:10.124Z,2.35
2019-05-05T02:44:10.377Z,2.30
2019-05-05T02:45:10.762Z,2.30
2019-05-05T02:46:14.178Z,2.36
2019-05-05T02:47:11.146Z,2.37
2019-05-05T02:48:14.887Z,2.38
2019-05-05T02:49:11.772Z,2.41
2019-05-05T02:50:11.974Z,2.39
2019-05-05T02:51:15.223Z,2.36
2019-05-05T02:52:15.141Z,2.24
2019-05-05T02:53:14.306Z,2.19
2019-05-05T02:54:13.697Z,2.19
2019-05-05T02:55:14.690Z,2.17
2019-05-05T02:56:14.609Z,2.09
2019-05-05T02:57:13.774Z,2.05
2019-05-05T02:58:14.332Z,2.04
2019-05-05T02:59:14.794Z,2.02
2019-05-05T03:00:14.716Z,1.99
2019-05-05T03:01:15.205Z,1.96
2019-05-05T03:02:15.155Z,1.83
2019-05-05T03:03:15.843Z,1.76
2019-05-05T03:04:15.876Z,1.71
2019-05-05T03:05:16.472Z,1.71
2019-05-05T03:06:16.692Z,1.70
2019-05-05T03:07:16.928Z,1.64
2019-05-05T03:08:17.215Z,1.60
2019-05-05T03:09:17.587Z,1.58
2019-05-05T03:10:17.964Z,1.56
2019-05-05T03:11:18.222Z,1.51
2019-05-05T03:12:18.482Z,1.31
2019-05-05T03:13:18.923Z,1.31
2019-05-05T03:14:19.211Z,1.28
2019-05-05T03:15:18.977Z,1.27
2019-05-05T03:16:19.166Z,1.24
2019-05-05T03:17:19.415Z,1.21
2019-05-05T03:18:19.910Z,1.19
2019-05-05T03:20:20.329Z,1.19
2019-05-05T03:22:20.614Z,1.17
2019-05-05T03:23:21.177Z,1.07
2019-05-05T03:24:21.002Z,1.04
2019-05-05T03:25:21.653Z,1.01
2019-05-05T03:26:23.305Z,0.97
2019-05-05T03:27:23.656Z,0.91
2019-05-05T03:28:23.998Z,0.85
2019-05-05T03:29:24.325Z,0.81
2019-05-05T03:30:25.774Z,0.80
2019-05-05T03:31:26.240Z,0.79
2019-05-05T03:32:25.482Z,0.75
2019-05-05T03:33:25.009Z,0.71
2019-05-05T03:34:24.313Z,0.68
2019-05-05T03:35:24.771Z,0.66
2019-05-05T03:36:25.051Z,0.66
2019-05-05T03:37:25.334Z,0.64
2019-05-05T03:38:25.774Z,0.60
2019-05-05T03:39:26.055Z,0.58
2019-05-05T03:40:26.529Z,0.56
2019-05-05T03:41:27.042Z,0.54
2019-05-05T03:42:27.160Z,0.50
2019-05-05T03:43:27.503Z,0.52
2019-05-05T03:44:27.899Z,0.51
2019-05-05T03:45:28.280Z,0.49
2019-05-05T03:46:28.897Z,0.46
2019-05-05T03:47:28.901Z,0.40
2019-05-05T03:48:29.204Z,0.40
2019-05-05T03:49:29.592Z,0.41
2019-05-05T03:50:29.939Z,0.41
2019-05-05T03:51:30.198Z,0.37
2019-05-05T03:52:30.495Z,0.37
2019-05-05T03:53:31.035Z,0.36
2019-05-05T03:54:31.498Z,0.38
2019-05-05T03:55:31.975Z,0.41
2019-05-05T03:56:34.545Z,0.42
2019-05-05T03:57:33.881Z,0.40
2019-05-05T03:58:34.384Z,0.38
2019-05-05T03:59:33.566Z,0.40
2019-05-05T04:00:34.032Z,0.33
2019-05-05T04:01:34.650Z,0.31
2019-05-05T04:02:34.209Z,0.34
2019-05-05T04:03:34.214Z,0.36
2019-05-05T04:04:34.203Z,0.36
2019-05-05T04:05:34.155Z,0.36
2019-05-05T04:06:34.573Z,0.37
2019-05-05T04:07:34.814Z,0.35
2019-05-05T04:08:35.240Z,0.36
2019-05-05T04:09:35.358Z,0.35
2019-05-05T04:10:35.875Z,0.34
2019-05-05T04:11:35.815Z,0.35
2019-05-05T04:12:36.310Z,0.33
2019-05-05T04:13:36.463Z,0.31
2019-05-05T04:14:36.755Z,0.31
2019-05-05T04:15:37.047Z,0.30
2019-05-05T04:16:37.626Z,0.28
2019-05-05T04:17:37.546Z,0.27
2019-05-05T04:18:37.820Z,0.27
2019-05-05T04:19:37.937Z,0.24
2019-05-05T04:20:38.334Z,0.25
2019-05-05T04:21:38.755Z,0.23
2019-05-05T04:22:39.276Z,0.22
2019-05-05T04:23:39.039Z,0.22
2019-05-05T04:24:39.302Z,0.22
2019-05-05T04:25:40.833Z,0.22
2019-05-05T04:26:39.738Z,0.22
2019-05-05T04:27:39.997Z,0.21
2019-05-05T04:28:40.526Z,0.21
2019-05-05T04:29:40.260Z,0.22
2019-05-05T04:30:40.713Z,0.22
2019-05-05T04:31:41.082Z,0.23
2019-05-05T04:32:43.777Z,0.29
2019-05-05T04:33:43.917Z,0.30
2019-05-05T04:34:43.912Z,0.31
2019-05-05T04:35:44.219Z,0.33
2019-05-05T04:36:44.390Z,0.35
2019-05-05T04:37:43.818Z,0.38
2019-05-05T04:38:44.084Z,0.40
2019-05-05T04:39:44.469Z,0.43
2019-05-05T04:40:44.447Z,0.45
2019-05-05T04:41:44.694Z,0.47
2019-05-05T04:43:44.981Z,0.50
2019-05-05T04:44:45.215Z,0.63
2019-05-05T04:45:45.660Z,0.67
2019-05-05T04:46:46.069Z,0.68
2019-05-05T04:47:46.616Z,0.70
2019-05-05T04:48:46.879Z,0.72
2019-05-05T04:49:46.661Z,0.75
2019-05-05T04:50:46.949Z,0.78
2019-05-05T04:51:50.279Z,0.82
2019-05-05T04:52:47.422Z,0.85
2019-05-05T04:53:47.258Z,0.89
2019-05-05T04:54:47.704Z,0.93
2019-05-05T04:55:47.889Z,0.98
2019-05-05T04:56:48.027Z,1.04
2019-05-05T04:57:48.262Z,1.09
2019-05-05T04:58:48.767Z,1.15
2019-05-05T04:59:49.161Z,1.20
2019-05-05T05:00:49.359Z,1.25
2019-05-05T05:01:49.104Z,1.31
2019-05-05T05:02:49.686Z,1.35
2019-05-05T05:03:49.974Z,1.40
2019-05-05T05:04:49.970Z,1.45
2019-05-05T05:05:50.155Z,1.66
2019-05-05T05:06:50.337Z,1.68
2019-05-05T05:07:50.561Z,1.71
2019-05-05T05:08:50.864Z,1.74
2019-05-05T05:09:51.096Z,1.78
2019-05-05T05:10:51.360Z,1.97
2019-05-05T05:11:51.606Z,1.98
2019-05-05T05:12:53.880Z,2.01
2019-05-05T05:13:54.380Z,2.05
2019-05-05T05:14:54.510Z,2.09
2019-05-05T05:15:53.993Z,2.14
2019-05-05T05:16:54.176Z,2.20
2019-05-05T05:17:53.606Z,2.26
2019-05-05T05:18:53.854Z,2.48
2019-05-05T05:19:54.304Z,2.54
2019-05-05T05:20:54.945Z,2.56
2019-05-05T05:22:01.180Z,2.58
2019-05-05T05:22:54.695Z,2.62
2019-05-05T05:23:54.968Z,2.80
2019-05-05T05:24:55.216Z,2.82
2019-05-05T05:25:55.487Z,2.90
2019-05-05T05:26:56.033Z,2.95
2019-05-05T05:27:56.305Z,2.97
2019-05-05T05:28:56.631Z,3.06
2019-05-05T05:29:56.861Z,3.07
2019-05-05T05:30:57.145Z,3.14
2019-05-05T05:31:57.510Z,3.21
2019-05-05T05:32:57.763Z,3.26
2019-05-05T05:33:58.020Z,3.27
2019-05-05T05:34:58.242Z,3.35
2019-05-05T05:35:58.895Z,3.36
2019-05-05T05:36:58.816Z,3.38
2019-05-05T05:37:59.064Z,3.41
2019-05-05T05:38:59.363Z,3.57
2019-05-05T05:39:59.601Z,3.58
2019-05-05T05:40:59.768Z,3.60
2019-05-05T05:41:59.903Z,3.68
2019-05-05T05:43:00.417Z,3.70
2019-05-05T05:44:00.225Z,3.72
2019-05-05T05:45:00.749Z,3.75
2019-05-05T05:46:01.371Z,3.89
2019-05-05T05:47:01.100Z,3.90
2019-05-05T05:48:01.123Z,3.93
2019-05-05T05:49:01.582Z,4.06
2019-05-05T05:50:03.941Z,4.10
2019-05-05T05:51:04.082Z,4.11
2019-05-05T05:52:12.516Z,4.14
2019-05-05T05:53:02.067Z,4.18
2019-05-05T05:54:03.761Z,4.23
2019-05-05T05:55:04.121Z,4.44
2019-05-05T05:56:04.313Z,4.45
2019-05-05T05:57:04.315Z,4.48
2019-05-05T05:58:04.783Z,4.62
2019-05-05T05:59:03.649Z,4.65
2019-05-05T06:00:04.077Z,4.70
2019-05-05T06:01:04.328Z,4.76
2019-05-05T06:02:09.811Z,4.77
2019-05-05T06:03:03.934Z,4.79
2019-05-05T06:04:04.073Z,4.82
2019-05-05T06:05:04.336Z,4.86
2019-05-05T06:06:04.714Z,4.90
2019-05-05T06:07:04.173Z,5.11
2019-05-05T06:08:04.814Z,5.16
2019-05-05T06:09:04.355Z,5.17
2019-05-05T06:10:04.618Z,5.29
2019-05-05T06:11:05.068Z,5.35
2019-05-05T06:12:05.559Z,5.37
2019-05-05T06:13:05.810Z,5.47
2019-05-05T06:14:06.077Z,5.49
2019-05-05T06:15:06.327Z,5.60
2019-05-05T06:16:06.804Z,5.67
2019-05-05T06:17:07.044Z,5.69
2019-05-05T06:18:07.549Z,5.80
2019-05-05T06:19:10.231Z,5.81
2019-05-05T06:20:08.275Z,5.91
2019-05-05T06:21:08.728Z,5.92
2019-05-05T06:22:09.003Z,5.95
2019-05-05T06:23:09.336Z,6.00
2019-05-05T06:24:09.733Z,6.21
2019-05-05T06:25:09.737Z,6.22
2019-05-05T06:26:10.224Z,6.31
2019-05-05T06:27:10.586Z,6.33
2019-05-05T06:28:10.904Z,6.42
2019-05-05T06:29:11.029Z,6.44
2019-05-05T06:30:11.376Z,6.47
2019-05-05T06:31:13.872Z,6.65
2019-05-05T06:32:14.396Z,6.70
2019-05-05T06:33:13.711Z,6.71
2019-05-05T06:34:13.959Z,6.79
2019-05-05T06:35:13.872Z,6.81
2019-05-05T06:36:14.167Z,6.94
2019-05-05T06:37:14.543Z,6.96
2019-05-05T06:38:13.850Z,7.13
2019-05-05T06:39:14.073Z,7.24
2019-05-05T06:40:14.654Z,7.35
2019-05-05T06:41:14.747Z,7.43
2019-05-05T06:42:14.781Z,7.50
2019-05-05T06:43:15.045Z,7.54
2019-05-05T06:44:15.424Z,7.56
2019-05-05T06:45:18.598Z,7.69
2019-05-05T06:46:16.154Z,7.78
2019-05-05T06:47:16.860Z,7.85
2019-05-05T06:48:16.797Z,7.95
2019-05-05T06:49:17.074Z,7.97
2019-05-05T06:50:17.445Z,8.00
2019-05-05T06:51:17.721Z,8.05
2019-05-05T06:52:17.978Z,8.09
2019-05-05T06:53:18.246Z,8.31
2019-05-05T06:55:18.647Z,8.40
2019-05-05T06:56:18.884Z,8.53
2019-05-05T06:57:19.194Z,8.55
2019-05-05T06:58:20.375Z,8.73
2019-05-05T06:59:19.883Z,8.86
2019-05-05T07:00:20.414Z,8.87
2019-05-05T07:01:20.200Z,9.07
2019-05-05T07:02:20.568Z,9.10
2019-05-05T07:03:20.845Z,9.13
2019-05-05T07:04:21.290Z,9.36
2019-05-05T07:05:23.441Z,9.40
2019-05-05T07:06:23.799Z,9.45
2019-05-05T07:07:23.646Z,9.51
2019-05-05T07:08:24.340Z,9.81
2019-05-05T07:09:24.452Z,9.91
2019-05-05T07:10:25.439Z,10.02
2019-05-05T07:11:23.786Z,10.11
2019-05-05T07:12:24.167Z,10.24
2019-05-05T07:13:24.449Z,10.08
2019-05-05T07:14:23.702Z,10.33
2019-05-05T07:15:23.828Z,10.53
2019-05-05T07:16:24.446Z,10.63
2019-05-05T07:17:26.809Z,10.60
2019-05-05T07:18:27.874Z,10.47
2019-05-05T07:19:27.871Z,10.52
2019-05-05T07:20:25.156Z,10.55
2019-05-05T07:21:25.841Z,10.70
2019-05-05T07:22:25.796Z,10.61
2019-05-05T07:23:26.063Z,10.50
2019-05-05T07:24:26.418Z,10.56
2019-05-05T07:25:39.830Z,10.42
2019-05-05T07:26:27.042Z,10.44
2019-05-05T07:27:26.755Z,10.69
2019-05-05T07:28:27.136Z,10.65
2019-05-05T07:29:27.421Z,10.50
2019-05-05T07:30:27.943Z,10.44
2019-05-05T07:31:27.727Z,10.40
2019-05-05T07:32:27.970Z,10.42
2019-05-05T07:33:31.017Z,10.40
2019-05-05T07:34:33.408Z,10.41
2019-05-05T07:35:29.150Z,10.34
2019-05-05T07:36:29.414Z,10.36
2019-05-05T07:37:29.786Z,10.34
2019-05-05T07:38:29.971Z,10.20
2019-05-05T07:39:30.048Z,10.17
2019-05-05T07:40:29.800Z,10.38
2019-05-05T07:41:30.204Z,10.60
2019-05-05T07:42:30.240Z,10.75
2019-05-05T07:43:30.740Z,10.84
2019-05-05T07:44:30.994Z,10.96
2019-05-05T07:45:31.242Z,11.08
2019-05-05T07:46:34.701Z,11.25
2019-05-05T07:47:31.873Z,11.28
2019-05-05T07:48:33.607Z,11.33
2019-05-05T07:49:33.562Z,11.64
2019-05-05T07:50:35.667Z,11.82
2019-05-05T07:51:33.693Z,11.34
2019-05-05T07:52:34.392Z,11.51
2019-05-05T07:53:33.709Z,11.55
2019-05-05T07:54:34.288Z,11.72
2019-05-05T07:55:34.424Z,11.80
2019-05-05T07:56:34.529Z,11.92
2019-05-05T07:57:34.815Z,12.05
2019-05-05T07:58:35.076Z,12.19
2019-05-05T07:59:35.353Z,12.31
2019-05-05T08:00:35.488Z,12.34
2019-05-05T08:01:35.769Z,12.38
2019-05-05T08:02:36.054Z,12.62
2019-05-05T08:03:36.357Z,12.80
2019-05-05T08:04:36.800Z,12.95
2019-05-05T08:05:37.058Z,12.94
2019-05-05T08:06:37.353Z,13.29
2019-05-05T08:07:37.762Z,13.57
2019-05-05T08:08:38.095Z,13.77
2019-05-05T08:09:38.377Z,13.98
2019-05-05T08:10:38.857Z,14.24
2019-05-05T08:11:38.867Z,14.49
2019-05-05T08:12:39.109Z,14.83
2019-05-05T08:13:39.505Z,15.14
2019-05-05T08:14:39.600Z,15.36
2019-05-05T08:15:53.823Z,15.13
2019-05-05T08:16:40.859Z,15.22
2019-05-05T08:17:40.812Z,14.75
2019-05-05T08:18:40.767Z,14.71
2019-05-05T08:19:41.464Z,14.94
2019-05-05T08:20:41.249Z,14.89
2019-05-05T08:21:43.621Z,15.19
2019-05-05T08:22:44.181Z,15.08
2019-05-05T08:23:42.174Z,15.10
2019-05-05T08:24:43.948Z,15.08
2019-05-05T08:25:45.232Z,15.01
2019-05-05T08:26:44.208Z,15.21
2019-05-05T08:27:44.685Z,15.00
2019-05-05T08:28:43.492Z,14.94
2019-05-05T08:29:43.857Z,14.71
2019-05-05T08:30:44.231Z,14.63
2019-05-05T08:31:44.332Z,14.76
2019-05-05T08:33:44.260Z,14.52
2019-05-05T08:34:57.545Z,14.51
2019-05-05T08:35:44.956Z,15.10
2019-05-05T08:36:44.758Z,14.61
2019-05-05T08:37:45.042Z,14.35
2019-05-05T08:38:45.301Z,14.33
2019-05-05T08:39:45.564Z,14.38
2019-05-05T08:40:45.862Z,14.25
2019-05-05T08:41:47.411Z,14.10
2019-05-05T08:42:46.673Z,14.72
2019-05-05T08:43:46.938Z,15.17
2019-05-05T08:44:47.450Z,15.36
2019-05-05T08:45:47.716Z,15.06
2019-05-05T08:46:48.099Z,14.54
2019-05-05T08:47:48.586Z,14.93
2019-05-05T08:48:48.459Z,15.41
2019-05-05T08:49:48.754Z,15.64
2019-05-05T08:50:49.065Z,15.76
2019-05-05T08:51:49.488Z,16.12
2019-05-05T08:52:49.771Z,16.26
2019-05-05T08:53:50.147Z,16.37
2019-05-05T08:54:50.627Z,16.44
2019-05-05T08:55:50.426Z,15.99
2019-05-05T08:56:50.950Z,15.75
2019-05-05T08:57:50.971Z,15.52
2019-05-05T08:58:50.769Z,15.35
2019-05-05T08:59:51.069Z,15.18
2019-05-05T09:00:53.520Z,15.09
2019-05-05T09:01:54.000Z,14.90
2019-05-05T09:02:54.157Z,14.87
2019-05-05T09:03:53.550Z,14.63
2019-05-05T09:04:53.738Z,14.75
2019-05-05T09:05:54.231Z,15.30
2019-05-05T09:06:54.341Z,15.21
2019-05-05T09:07:54.749Z,14.72
2019-05-05T09:08:54.779Z,14.71
2019-05-05T09:09:54.769Z,14.64
2019-05-05T09:10:55.321Z,14.43
2019-05-05T09:11:54.913Z,14.39
2019-05-05T09:12:55.162Z,14.32
2019-05-05T09:13:55.593Z,14.24
2019-05-05T09:14:55.883Z,14.17
2019-05-05T09:15:56.376Z,14.19
2019-05-05T09:16:56.596Z,14.18
2019-05-05T09:17:56.856Z,14.08
2019-05-05T09:18:57.239Z,13.98
2019-05-05T09:19:57.315Z,13.67
2019-05-05T09:20:57.762Z,13.67
2019-05-05T09:21:58.149Z,13.62
2019-05-05T09:22:58.473Z,13.56
2019-05-05T09:24:02.393Z,13.56
2019-05-05T09:24:59.383Z,13.91
2019-05-05T09:25:59.603Z,14.72
2019-05-05T09:26:59.467Z,14.80
2019-05-05T09:27:59.424Z,14.68
2019-05-05T09:28:59.548Z,14.27
2019-05-05T09:30:00.087Z,14.91
2019-05-05T09:31:00.124Z,15.07
2019-05-05T09:32:00.379Z,15.56
2019-05-05T09:33:00.992Z,15.82
2019-05-05T09:34:01.117Z,15.19
2019-05-05T09:35:01.263Z,14.84
2019-05-05T09:36:01.759Z,14.80
2019-05-05T09:37:03.685Z,14.76
2019-05-05T09:38:03.878Z,14.60
2019-05-05T09:39:04.363Z,14.57
2019-05-05T09:40:04.542Z,14.49
2019-05-05T09:41:03.779Z,14.13
2019-05-05T09:42:04.075Z,14.11
2019-05-05T09:43:03.866Z,13.95
2019-05-05T09:44:04.280Z,13.93
2019-05-05T09:45:04.733Z,14.08
2019-05-05T09:46:03.977Z,14.33
2019-05-05T09:47:04.732Z,14.62
2019-05-05T09:48:04.322Z,14.64
2019-05-05T09:49:04.665Z,14.63
2019-05-05T09:50:04.229Z,14.60
2019-05-05T09:51:04.491Z,14.56
2019-05-05T09:52:05.065Z,14.51
2019-05-05T09:53:04.334Z,14.49
2019-05-05T09:54:14.134Z,14.49
2019-05-05T09:55:04.675Z,14.51
2019-05-05T09:56:04.990Z,14.53
2019-05-05T09:57:05.339Z,14.58
2019-05-05T09:58:05.374Z,14.61
2019-05-05T09:59:05.853Z,14.64
2019-05-05T10:00:06.283Z,14.66
2019-05-05T10:01:06.270Z,14.71
2019-05-05T10:02:06.538Z,14.67
2019-05-05T10:03:06.893Z,14.64
2019-05-05T10:04:07.519Z,14.61
2019-05-05T10:05:07.320Z,14.57
2019-05-05T10:06:07.809Z,14.38
2019-05-05T10:07:08.335Z,14.22
2019-05-05T10:08:08.101Z,14.08
2019-05-05T10:09:08.375Z,13.97
2019-05-05T10:10:08.647Z,13.88
2019-05-05T10:11:08.918Z,13.60
2019-05-05T10:12:09.159Z,13.59
2019-05-05T10:13:09.416Z,13.60
2019-05-05T10:14:14.317Z,13.59
2019-05-05T10:15:09.972Z,13.59
2019-05-05T10:16:09.778Z,13.61
2019-05-05T10:17:10.173Z,13.60
2019-05-05T10:18:10.462Z,13.53
2019-05-05T10:19:11.007Z,13.46
2019-05-05T10:20:10.835Z,13.40
2019-05-05T10:21:11.101Z,13.28
2019-05-05T10:22:11.405Z,13.16
2019-05-05T10:23:14.116Z,13.08
2019-05-05T10:24:26.858Z,13.04
2019-05-05T10:25:12.053Z,13.01
2019-05-05T10:26:12.229Z,13.04
2019-05-05T10:27:12.552Z,13.15
2019-05-05T10:28:13.547Z,13.23
2019-05-05T10:29:13.612Z,13.46
2019-05-05T10:30:14.286Z,13.60
2019-05-05T10:31:13.943Z,13.90
2019-05-05T10:32:14.114Z,14.32
2019-05-05T10:33:14.474Z,14.58
2019-05-05T10:34:14.724Z,14.74
2019-05-05T10:35:15.355Z,14.85
2019-05-05T10:36:15.119Z,14.94
2019-05-05T10:37:15.398Z,14.99
2019-05-05T10:38:15.889Z,14.96
2019-05-05T10:39:16.147Z,14.91
2019-05-05T10:40:16.754Z,14.65
2019-05-05T10:41:16.599Z,14.62
2019-05-05T10:42:16.963Z,14.57
2019-05-05T10:43:16.788Z,14.51
2019-05-05T10:44:17.287Z,14.46
2019-05-05T10:46:17.770Z,14.39
2019-05-05T10:47:18.226Z,13.90
2019-05-05T10:48:18.591Z,13.88
2019-05-05T10:49:18.853Z,13.80
2019-05-05T10:50:19.121Z,13.55
2019-05-05T10:51:19.345Z,13.57
2019-05-05T10:52:19.893Z,13.60
2019-05-05T10:53:19.776Z,13.60
2019-05-05T10:54:20.038Z,13.59
2019-05-05T10:55:20.306Z,13.58
2019-05-05T10:56:20.742Z,13.55
2019-05-05T10:57:20.803Z,13.53
2019-05-05T10:58:21.094Z,13.51
2019-05-05T10:59:23.681Z,13.50
2019-05-05T11:00:21.888Z,13.47
2019-05-05T11:01:23.631Z,13.45
2019-05-05T11:02:23.670Z,13.42
2019-05-05T11:03:23.748Z,13.40
2019-05-05T11:04:24.370Z,13.35
2019-05-05T11:05:23.540Z,13.28
2019-05-05T11:06:23.400Z,13.24
2019-05-05T11:07:23.910Z,13.37
2019-05-05T11:08:24.161Z,13.72
2019-05-05T11:09:24.517Z,14.09
2019-05-05T11:10:24.785Z,14.38
2019-05-05T11:11:24.700Z,14.58
2019-05-05T11:12:24.974Z,14.65
2019-05-05T11:13:25.245Z,14.71
2019-05-05T11:14:25.574Z,14.74
2019-05-05T11:15:25.817Z,14.78
2019-05-05T11:16:26.248Z,14.83
2019-05-05T11:17:26.691Z,14.86
2019-05-05T11:18:27.244Z,14.87
2019-05-05T11:19:27.184Z,14.89
2019-05-05T11:20:27.451Z,14.90
2019-05-05T11:21:27.976Z,14.88
2019-05-05T11:22:27.724Z,14.69
2019-05-05T11:23:28.044Z,14.65
2019-05-05T11:24:28.303Z,14.62
2019-05-05T11:25:28.569Z,14.60
2019-05-05T11:26:28.926Z,14.56
2019-05-05T11:27:29.425Z,14.53
2019-05-05T11:28:29.678Z,14.47
2019-05-05T11:29:29.936Z,14.41
2019-05-05T11:30:30.223Z,14.35
2019-05-05T11:31:30.656Z,14.29
2019-05-05T11:32:30.915Z,14.26
2019-05-05T11:33:31.345Z,14.23
2019-05-05T11:34:33.730Z,14.22
2019-05-05T11:35:33.796Z,14.21
2019-05-05T11:36:32.097Z,14.20
2019-05-05T11:37:34.194Z,14.18
2019-05-05T11:38:33.848Z,14.16
2019-05-05T11:39:33.997Z,14.12
2019-05-05T11:40:33.540Z,14.08
2019-05-05T11:41:33.497Z,13.95
2019-05-05T11:42:34.349Z,13.95
2019-05-05T11:43:34.069Z,13.93
2019-05-05T11:44:34.314Z,13.88
2019-05-05T11:45:34.763Z,13.83
2019-05-05T11:46:35.049Z,13.76
2019-05-05T11:47:35.398Z,13.69
2019-05-05T11:48:35.691Z,13.61
2019-05-05T11:49:35.975Z,13.52
2019-05-05T11:50:36.242Z,13.44
2019-05-05T11:51:36.644Z,13.37
2019-05-05T11:52:37.189Z,13.32
2019-05-05T11:53:36.951Z,13.25
2019-05-05T11:54:37.451Z,13.18
2019-05-05T11:55:37.980Z,12.95
2019-05-05T11:56:37.726Z,12.94
2019-05-05T11:57:38.207Z,12.92
2019-05-05T11:58:38.596Z,12.91
2019-05-05T11:59:38.852Z,12.89
2019-05-05T12:00:39.358Z,12.93
2019-05-05T12:01:39.602Z,12.95
2019-05-05T12:02:39.883Z,12.96
2019-05-05T12:03:39.907Z,12.98
2019-05-05T12:04:39.917Z,13.10
2019-05-05T12:05:40.171Z,13.12
2019-05-05T12:06:40.564Z,13.24
2019-05-05T12:07:40.760Z,13.26
2019-05-05T12:09:41.049Z,13.39
2019-05-05T12:10:43.816Z,13.45
2019-05-05T12:11:43.740Z,13.52
2019-05-05T12:12:41.834Z,13.56
2019-05-05T12:13:43.875Z,13.73
2019-05-05T12:14:42.380Z,13.76
2019-05-05T12:15:44.605Z,13.81
2019-05-05T12:16:43.915Z,13.88
2019-05-05T12:17:44.258Z,13.97
2019-05-05T12:18:44.845Z,14.13
2019-05-05T12:19:44.395Z,14.23
2019-05-05T12:20:44.664Z,14.33
2019-05-05T12:21:44.950Z,14.72
2019-05-05T12:22:45.441Z,15.21
2019-05-05T12:23:45.858Z,15.72
2019-05-05T12:24:46.086Z,16.23
2019-05-05T12:25:46.476Z,16.72
2019-05-05T12:26:46.430Z,18.04
2019-05-05T12:27:46.796Z,18.18
2019-05-05T12:28:47.059Z,18.27
2019-05-05T12:29:47.266Z,18.15
2019-05-05T12:30:47.786Z,17.86
2019-05-05T12:31:48.243Z,17.82
2019-05-05T12:32:48.547Z,17.52
2019-05-05T12:33:48.810Z,17.49
2019-05-05T12:34:49.186Z,17.45
2019-05-05T12:35:49.447Z,17.43
2019-05-05T12:36:49.793Z,17.47
2019-05-05T12:37:53.918Z,17.54
2019-05-05T12:38:50.399Z,18.09
2019-05-05T12:39:50.444Z,17.81
2019-05-05T12:40:50.729Z,18.35
2019-05-05T12:41:50.974Z,18.91
2019-05-05T12:42:50.958Z,19.34
2019-05-05T12:43:51.442Z,18.78
2019-05-05T12:44:53.742Z,18.49
2019-05-05T12:45:53.968Z,18.34
2019-05-05T12:46:52.271Z,18.36
2019-05-05T12:47:52.365Z,18.31
2019-05-05T12:48:54.256Z,18.16
2019-05-05T12:49:54.504Z,18.24
2019-05-05T12:50:53.739Z,18.21
2019-05-05T12:51:54.255Z,18.19
2019-05-05T12:52:54.967Z,18.40
2019-05-05T12:53:54.819Z,18.74
2019-05-05T12:54:55.273Z,18.35
2019-05-05T12:55:55.603Z,18.24
2019-05-05T12:56:55.666Z,18.08
2019-05-05T12:57:56.158Z,17.68
2019-05-05T12:58:56.410Z,17.48
2019-05-05T12:59:56.681Z,17.18
2019-05-05T13:00:57.042Z,16.90
2019-05-05T13:01:57.093Z,16.54
2019-05-05T13:02:57.371Z,16.26
2019-05-05T13:03:57.842Z,16.07
2019-05-05T13:04:58.354Z,15.88
2019-05-05T13:05:58.335Z,15.80
2019-05-05T13:06:58.589Z,15.67
2019-05-05T13:07:58.997Z,15.45
2019-05-05T13:08:59.146Z,15.01
2019-05-05T13:09:59.424Z,14.99
2019-05-05T13:10:59.740Z,14.82
2019-05-05T13:12:00.176Z,14.61
2019-05-05T13:13:00.148Z,14.39
2019-05-05T13:14:00.422Z,14.30
2019-05-05T13:15:04.061Z,14.24
2019-05-05T13:16:01.567Z,14.19
2019-05-05T13:17:03.510Z,14.13
2019-05-05T13:18:01.237Z,14.07
2019-05-05T13:19:04.188Z,14.03